Time;durP1;ratioP1;P1;durP2;ratioP2;P2;SDS_P1;SDS_P2;PMS_P1;PMS_P2;Temp;Humidity;BMP_temperature;BMP_pressure;BME280_temperature;BME280_humidity;BME280_pressure;Samples;Min_cycle;Max_cycle;Signal;HPM_P1;HPM_P2
2021/11/21 00:02:01;;;;;;;13.70;6.87;;;1.60;99.90;;;;;;4967318;28;20518;-54
2021/11/21 00:04:26;;;;;;;12.40;8.40;;;1.60;99.90;;;;;;4962267;28;21058;-57
2021/11/21 00:06:52;;;;;;;10.97;7.90;;;1.60;99.90;;;;;;4962199;28;20409;-59
2021/11/21 00:09:18;;;;;;;11.90;7.50;;;1.60;99.90;;;;;;4966942;28;20226;-56
2021/11/21 00:11:45;;;;;;;12.00;7.10;;;1.60;99.90;;;;;;4966536;28;20681;-56
2021/11/21 00:14:11;;;;;;;11.03;7.60;;;1.60;99.90;;;;;;4947008;28;20504;-57
2021/11/21 00:16:37;;;;;;;11.60;6.93;;;1.50;99.90;;;;;;4965700;28;20468;-58
2021/11/21 00:19:03;;;;;;;10.10;6.30;;;1.50;99.90;;;;;;4964458;28;20890;-56
2021/11/21 00:21:29;;;;;;;11.13;6.80;;;1.50;99.90;;;;;;4946883;28;20180;-57
2021/11/21 00:23:55;;;;;;;9.43;5.90;;;1.50;99.90;;;;;;4962847;28;20452;-58
2021/11/21 00:26:21;;;;;;;10.57;6.17;;;1.50;99.90;;;;;;4964401;28;20446;-57
2021/11/21 00:28:48;;;;;;;8.13;6.13;;;1.50;99.90;;;;;;4980385;28;20466;-57
2021/11/21 00:31:14;;;;;;;9.40;5.93;;;1.50;99.90;;;;;;4961758;28;20433;-57
2021/11/21 00:33:40;;;;;;;10.60;6.00;;;1.50;99.90;;;;;;4975556;28;20535;-57
2021/11/21 00:36:06;;;;;;;8.10;5.13;;;1.50;99.90;;;;;;4978601;28;21764;-57
2021/11/21 00:38:31;;;;;;;9.13;6.07;;;1.50;99.90;;;;;;4979674;28;20312;-57
2021/11/21 00:40:57;;;;;;;7.60;5.27;;;1.50;99.90;;;;;;4966330;28;20190;-57
2021/11/21 00:43:23;;;;;;;8.37;5.90;;;1.50;99.90;;;;;;4966130;28;20203;-58
2021/11/21 00:45:49;;;;;;;8.17;5.20;;;1.50;99.90;;;;;;4965191;28;20224;-58
2021/11/21 00:48:20;;;;;;;9.20;5.90;;;1.40;99.90;;;;;;4962907;28;20230;-57
2021/11/21 00:50:48;;;;;;;9.60;6.07;;;1.40;99.90;;;;;;4951546;28;20447;-58
2021/11/21 00:53:14;;;;;;;7.40;5.93;;;1.40;99.90;;;;;;4965487;28;20440;-58
2021/11/21 00:55:48;;;;;;;9.70;6.23;;;1.40;99.90;;;;;;4977129;28;20886;-57
2021/11/21 00:58:14;;;;;;;12.00;6.87;;;1.40;99.90;;;;;;4969601;28;20605;-57
2021/11/21 01:00:42;;;;;;;9.20;6.13;;;1.40;99.90;;;;;;4944699;28;20445;-58
2021/11/21 01:03:12;;;;;;;10.37;6.60;;;1.30;99.90;;;;;;4963546;28;21156;-57
2021/11/21 01:05:39;;;;;;;8.57;5.63;;;1.30;99.90;;;;;;4947103;28;20480;-58
2021/11/21 01:08:04;;;;;;;9.80;6.30;;;1.30;99.90;;;;;;4965937;28;20445;-58
2021/11/21 01:10:33;;;;;;;9.57;6.53;;;1.30;99.90;;;;;;4945461;28;20540;-55
2021/11/21 01:12:59;;;;;;;17.33;9.77;;;1.30;99.90;;;;;;4961369;28;20730;-58
2021/11/21 01:15:26;;;;;;;16.10;8.53;;;1.30;99.90;;;;;;4962042;28;20831;-54
2021/11/21 01:17:53;;;;;;;12.10;7.70;;;1.30;99.90;;;;;;4961301;28;20445;-58
2021/11/21 01:20:21;;;;;;;18.03;9.40;;;1.30;99.90;;;;;;4964262;28;20871;-59
2021/11/21 01:22:47;;;;;;;15.20;7.90;;;1.30;99.90;;;;;;4962682;28;21589;-57
2021/11/21 01:25:14;;;;;;;13.23;8.30;;;1.30;99.90;;;;;;4955941;28;20464;-58
2021/11/21 01:27:41;;;;;;;13.10;7.53;;;1.30;99.90;;;;;;4963917;28;20444;-58
2021/11/21 01:30:11;;;;;;;10.60;6.73;;;1.30;99.90;;;;;;4962232;28;20471;-57
2021/11/21 01:32:37;;;;;;;12.67;7.80;;;1.30;99.90;;;;;;4964768;28;20432;-58
2021/11/21 01:35:04;;;;;;;9.90;6.07;;;1.30;99.90;;;;;;4962848;28;20488;-57
2021/11/21 01:37:29;;;;;;;15.63;7.97;;;1.30;99.90;;;;;;4962852;28;20455;-57
2021/11/21 01:39:55;;;;;;;18.00;8.23;;;1.30;99.90;;;;;;4944018;28;20466;-58
2021/11/21 01:42:22;;;;;;;12.77;7.20;;;1.30;99.90;;;;;;4958719;28;20709;-56
2021/11/21 01:44:48;;;;;;;12.97;8.37;;;1.20;99.90;;;;;;4958124;28;20198;-58
2021/11/21 01:47:14;;;;;;;36.10;15.97;;;1.20;99.90;;;;;;4959730;28;20429;-58
2021/11/21 01:49:40;;;;;;;14.13;8.27;;;1.20;99.90;;;;;;4961439;28;20462;-59
2021/11/21 01:52:06;;;;;;;11.90;7.90;;;1.20;99.90;;;;;;4963092;28;20432;-57
2021/11/21 01:54:35;;;;;;;19.70;10.10;;;1.20;99.90;;;;;;4947470;28;20455;-56
2021/11/21 01:57:02;;;;;;;19.97;9.67;;;1.20;99.90;;;;;;4964481;28;20451;-57
2021/11/21 01:59:29;;;;;;;30.57;13.93;;;1.20;99.90;;;;;;4961477;28;20473;-56
2021/11/21 02:01:54;;;;;;;13.93;8.23;;;1.20;99.90;;;;;;4944223;28;20573;-57
2021/11/21 02:04:20;;;;;;;15.53;8.70;;;1.20;99.90;;;;;;4961238;28;20678;-57
2021/11/21 02:06:46;;;;;;;16.43;8.03;;;1.10;99.90;;;;;;4962667;28;20238;-57
2021/11/21 02:09:12;;;;;;;14.37;8.10;;;1.10;99.90;;;;;;4962944;28;20219;-56
2021/11/21 02:11:37;;;;;;;10.27;7.47;;;1.10;99.90;;;;;;4964384;28;20450;-58
2021/11/21 02:14:03;;;;;;;12.53;7.67;;;1.10;99.90;;;;;;4945635;28;20217;-55
2021/11/21 02:16:31;;;;;;;13.47;7.77;;;1.10;99.90;;;;;;4964078;28;20223;-57
2021/11/21 02:18:58;;;;;;;13.13;7.37;;;1.10;99.90;;;;;;4960176;28;20252;-58
2021/11/21 02:21:24;;;;;;;14.97;8.57;;;1.10;99.90;;;;;;4961706;28;20512;-58
2021/11/21 02:23:51;;;;;;;19.27;10.50;;;1.10;99.90;;;;;;4964259;28;20519;-59
2021/11/21 02:26:17;;;;;;;13.87;8.07;;;1.10;99.90;;;;;;4957914;28;20875;-56
2021/11/21 02:28:45;;;;;;;18.80;10.27;;;1.10;99.90;;;;;;4970055;28;20562;-58
2021/11/21 02:31:11;;;;;;;41.00;18.00;;;1.10;99.90;;;;;;4982037;28;20525;-56
2021/11/21 02:33:38;;;;;;;34.70;16.30;;;1.20;99.90;;;;;;4969615;28;20528;-56
2021/11/21 02:36:05;;;;;;;16.40;9.50;;;1.20;99.90;;;;;;4973872;28;20443;-57
2021/11/21 02:38:33;;;;;;;47.53;21.53;;;1.20;99.90;;;;;;4980265;28;20468;-56
2021/11/21 02:41:01;;;;;;;26.47;11.60;;;1.20;99.90;;;;;;4966974;28;20498;-56
2021/11/21 02:43:27;;;;;;;15.53;7.93;;;1.10;99.90;;;;;;4975040;28;20449;-56
2021/11/21 02:45:57;;;;;;;35.93;15.47;;;1.10;99.90;;;;;;4982778;28;20468;-56
2021/11/21 02:48:27;;;;;;;15.00;8.33;;;1.10;99.90;;;;;;4976239;28;21384;-56
2021/11/21 02:50:53;;;;;;;15.33;8.20;;;1.00;99.90;;;;;;4972905;28;20427;-57
2021/11/21 02:53:22;;;;;;;12.27;7.73;;;1.00;99.90;;;;;;4964783;28;20885;-56
2021/11/21 02:55:51;;;;;;;14.43;8.03;;;0.90;99.90;;;;;;4979594;28;20515;-57
2021/11/21 02:58:17;;;;;;;14.17;8.00;;;0.90;99.90;;;;;;4976209;28;21081;-57
2021/11/21 03:00:42;;;;;;;13.30;8.00;;;0.90;99.90;;;;;;4964693;28;20832;-56
2021/11/21 03:03:08;;;;;;;14.27;8.13;;;0.90;99.90;;;;;;4971168;28;20194;-56
2021/11/21 03:05:35;;;;;;;11.90;7.90;;;0.90;99.90;;;;;;4967117;28;20994;-57
2021/11/21 03:08:02;;;;;;;10.17;7.13;;;0.90;99.90;;;;;;4969532;28;20242;-57
2021/11/21 03:10:28;;;;;;;13.47;7.90;;;0.90;99.90;;;;;;4965095;28;20635;-57
2021/11/21 03:12:58;;;;;;;15.37;8.10;;;0.90;99.90;;;;;;4961441;28;20432;-55
2021/11/21 03:15:25;;;;;;;19.40;8.60;;;0.90;99.90;;;;;;4965377;28;20448;-56
2021/11/21 03:17:51;;;;;;;11.63;8.00;;;0.90;99.90;;;;;;4976101;28;20515;-55
2021/11/21 03:20:23;;;;;;;12.83;8.17;;;0.90;99.90;;;;;;4973549;28;20614;-55
2021/11/21 03:22:49;;;;;;;13.70;8.40;;;0.80;99.90;;;;;;4961245;28;20544;-56
2021/11/21 03:25:15;;;;;;;11.37;7.83;;;0.70;99.90;;;;;;4967194;28;20590;-56
2021/11/21 03:27:42;;;;;;;12.37;7.80;;;0.70;99.90;;;;;;4967546;28;20843;-56
2021/11/21 03:30:14;;;;;;;15.67;8.93;;;0.70;99.90;;;;;;4965713;28;20200;-56
2021/11/21 03:32:40;;;;;;;13.73;8.20;;;0.70;99.90;;;;;;4960867;28;20866;-55
2021/11/21 03:35:07;;;;;;;15.73;8.37;;;0.80;99.90;;;;;;4964578;28;20785;-54
2021/11/21 03:37:33;;;;;;;16.03;8.13;;;0.80;99.90;;;;;;4971242;28;20448;-58
2021/11/21 03:39:59;;;;;;;14.23;8.23;;;0.90;99.90;;;;;;4963292;28;20466;-56
2021/11/21 03:42:24;;;;;;;13.33;8.13;;;0.90;99.90;;;;;;4971440;28;20443;-56
2021/11/21 03:44:50;;;;;;;19.60;8.50;;;0.90;99.90;;;;;;4965355;28;20275;-56
2021/11/21 03:47:17;;;;;;;13.97;8.27;;;0.90;99.90;;;;;;4966525;28;20220;-55
2021/11/21 03:49:42;;;;;;;13.00;7.47;;;0.90;99.90;;;;;;4967641;28;20207;-57
2021/11/21 03:52:09;;;;;;;13.63;8.00;;;0.90;99.90;;;;;;4976024;28;20488;-58
2021/11/21 03:54:35;;;;;;;12.00;7.67;;;0.90;99.90;;;;;;4978398;28;20857;-56
2021/11/21 03:57:01;;;;;;;16.20;8.87;;;0.90;99.90;;;;;;4973442;28;20717;-58
2021/11/21 03:59:27;;;;;;;11.07;7.37;;;0.90;99.90;;;;;;4968452;28;20702;-57
2021/11/21 04:01:54;;;;;;;15.10;8.40;;;0.90;99.90;;;;;;4945692;28;20443;-57
2021/11/21 04:04:21;;;;;;;14.40;8.60;;;0.90;99.90;;;;;;4975348;28;20454;-57
2021/11/21 04:06:47;;;;;;;15.70;8.53;;;0.90;99.90;;;;;;4969369;28;20443;-56
2021/11/21 04:09:13;;;;;;;14.20;8.43;;;0.90;99.90;;;;;;4990205;22;20494;-61
2021/11/21 04:11:39;;;;;;;14.80;8.90;;;0.90;99.90;;;;;;4985175;28;20426;-61
2021/11/21 04:14:05;;;;;;;14.63;8.63;;;0.90;99.90;;;;;;4988946;28;20434;-60
2021/11/21 04:16:31;;;;;;;14.63;8.70;;;0.90;99.90;;;;;;4986821;28;20430;-58
2021/11/21 04:18:57;;;;;;;14.50;8.40;;;0.90;99.90;;;;;;4987249;28;20688;-60
2021/11/21 04:21:23;;;;;;;13.17;8.17;;;0.90;99.90;;;;;;4963566;28;20474;-60
2021/11/21 04:23:49;;;;;;;14.63;8.73;;;0.90;99.90;;;;;;4952287;28;20199;-61
2021/11/21 04:26:15;;;;;;;13.97;9.33;;;0.90;99.90;;;;;;4966637;28;20173;-60
2021/11/21 04:28:41;;;;;;;14.00;8.73;;;0.90;99.90;;;;;;4977616;28;20699;-60
2021/11/21 04:31:07;;;;;;;15.77;9.43;;;0.90;99.90;;;;;;4974945;28;20435;-61
2021/11/21 04:33:33;;;;;;;14.43;8.27;;;0.90;99.90;;;;;;4967232;28;20438;-60
2021/11/21 04:35:59;;;;;;;16.20;8.57;;;0.90;99.90;;;;;;4966301;28;20421;-59
2021/11/21 04:38:25;;;;;;;17.67;9.20;;;0.90;99.90;;;;;;4963600;28;20419;-61
2021/11/21 04:40:53;;;;;;;12.90;7.70;;;0.90;99.90;;;;;;4973374;28;20574;-60
2021/11/21 04:43:20;;;;;;;16.90;8.57;;;1.00;99.90;;;;;;4979088;28;20426;-61
2021/11/21 04:45:47;;;;;;;18.23;8.63;;;1.00;99.90;;;;;;4969135;28;20500;-60
2021/11/21 04:48:13;;;;;;;13.40;8.40;;;1.00;99.90;;;;;;4982458;28;20456;-60
2021/11/21 04:50:39;;;;;;;13.37;7.93;;;1.00;99.90;;;;;;4973046;28;20526;-60
2021/11/21 04:53:05;;;;;;;16.57;8.73;;;1.00;99.90;;;;;;4965605;28;20962;-60
2021/11/21 04:55:32;;;;;;;15.50;8.70;;;1.00;99.90;;;;;;4955689;28;20267;-61
2021/11/21 04:57:58;;;;;;;16.70;8.67;;;1.00;99.90;;;;;;4968435;28;20918;-60
2021/11/21 05:00:24;;;;;;;12.57;8.20;;;1.00;99.90;;;;;;4961690;28;20531;-61
2021/11/21 05:02:51;;;;;;;13.43;8.10;;;0.90;99.90;;;;;;4962910;28;20689;-60
2021/11/21 05:05:19;;;;;;;13.13;8.40;;;0.90;99.90;;;;;;4971489;28;20454;-59
2021/11/21 05:07:45;;;;;;;13.07;7.90;;;0.90;99.90;;;;;;4975562;28;20437;-60
2021/11/21 05:10:10;;;;;;;14.83;8.17;;;0.90;99.90;;;;;;4970908;28;20467;-60
2021/11/21 05:12:37;;;;;;;14.80;8.73;;;0.90;99.90;;;;;;4977753;28;20496;-61
2021/11/21 05:15:05;;;;;;;14.40;8.30;;;0.90;99.90;;;;;;4969804;28;20173;-60
2021/11/21 05:17:31;;;;;;;13.93;8.60;;;0.90;99.90;;;;;;4963961;28;20421;-60
2021/11/21 05:20:00;;;;;;;15.00;8.80;;;0.90;99.90;;;;;;4974040;28;20455;-60
2021/11/21 05:22:27;;;;;;;17.50;9.60;;;0.90;99.90;;;;;;4971479;28;20179;-60
2021/11/21 05:24:53;;;;;;;19.10;9.47;;;0.90;99.90;;;;;;4968671;28;20455;-59
2021/11/21 05:27:20;;;;;;;14.50;9.37;;;1.00;99.90;;;;;;4970748;28;20433;-60
2021/11/21 05:29:46;;;;;;;12.50;7.90;;;0.90;99.90;;;;;;4980676;28;20579;-60
2021/11/21 05:32:11;;;;;;;17.57;9.00;;;0.90;99.90;;;;;;4978719;28;20422;-61
2021/11/21 05:34:37;;;;;;;14.47;8.43;;;0.90;99.90;;;;;;4981743;28;20206;-61
2021/11/21 05:37:05;;;;;;;15.70;8.60;;;0.90;99.90;;;;;;4967541;28;20539;-59
2021/11/21 05:39:30;;;;;;;14.80;9.00;;;0.90;99.90;;;;;;4968818;28;20482;-59
2021/11/21 05:41:57;;;;;;;15.20;8.93;;;0.90;99.90;;;;;;4961989;28;20434;-59
2021/11/21 05:44:23;;;;;;;15.13;8.57;;;0.90;99.90;;;;;;4964239;28;20223;-60
2021/11/21 05:46:48;;;;;;;16.13;8.50;;;0.90;99.90;;;;;;4970119;28;20442;-59
2021/11/21 05:49:14;;;;;;;18.93;9.10;;;0.90;99.90;;;;;;4957728;28;20277;-61
2021/11/21 05:51:40;;;;;;;15.63;9.40;;;0.90;99.90;;;;;;4960016;28;20263;-60
2021/11/21 05:54:06;;;;;;;14.67;8.43;;;0.90;99.90;;;;;;4965944;28;20330;-59
2021/11/21 05:56:32;;;;;;;18.93;9.30;;;0.90;99.90;;;;;;4967799;28;20834;-60
2021/11/21 05:59:00;;;;;;;14.27;8.00;;;0.90;99.90;;;;;;4962517;28;20478;-61
2021/11/21 06:01:26;;;;;;;12.90;7.33;;;0.80;99.90;;;;;;4960832;28;20192;-60
2021/11/21 06:03:53;;;;;;;14.93;9.00;;;0.80;99.90;;;;;;4964817;28;20482;-59
2021/11/21 06:06:19;;;;;;;22.63;7.90;;;0.90;99.90;;;;;;4967147;28;20176;-60
2021/11/21 06:08:44;;;;;;;14.80;8.30;;;0.90;99.90;;;;;;4970129;28;21037;-60
2021/11/21 06:11:10;;;;;;;15.53;7.50;;;0.80;99.90;;;;;;4970333;28;20411;-60
2021/11/21 06:13:36;;;;;;;16.93;9.80;;;0.80;99.90;;;;;;4971886;28;20235;-60
2021/11/21 06:16:01;;;;;;;14.63;8.80;;;0.80;99.90;;;;;;4955516;28;20428;-60
2021/11/21 06:18:27;;;;;;;13.33;8.10;;;0.80;99.90;;;;;;4966016;28;20563;-61
2021/11/21 06:20:53;;;;;;;13.70;8.20;;;0.90;99.90;;;;;;4979118;28;20580;-61
2021/11/21 06:23:18;;;;;;;15.80;8.63;;;0.90;99.90;;;;;;4969867;28;20221;-60
2021/11/21 06:25:44;;;;;;;15.10;9.40;;;0.90;99.90;;;;;;4974818;28;20196;-59
2021/11/21 06:28:11;;;;;;;14.50;8.37;;;0.90;99.90;;;;;;4967109;28;20171;-60
2021/11/21 06:30:37;;;;;;;15.97;8.43;;;0.90;99.90;;;;;;4976009;28;21963;-60
2021/11/21 06:33:04;;;;;;;15.20;8.53;;;0.90;99.90;;;;;;4971094;28;20516;-59
2021/11/21 06:35:30;;;;;;;16.70;8.53;;;0.90;99.90;;;;;;4970815;28;20430;-60
2021/11/21 06:37:57;;;;;;;22.13;8.53;;;0.90;99.90;;;;;;4983172;28;20446;-60
2021/11/21 06:40:23;;;;;;;14.00;7.70;;;0.80;99.90;;;;;;4976247;28;20442;-60
2021/11/21 06:42:49;;;;;;;15.80;8.53;;;0.80;99.90;;;;;;4972312;28;20435;-60
2021/11/21 06:45:14;;;;;;;15.80;8.20;;;0.90;99.90;;;;;;4978631;28;20507;-60
2021/11/21 06:47:40;;;;;;;14.77;8.90;;;0.90;99.90;;;;;;4950923;28;20239;-60
2021/11/21 06:50:09;;;;;;;18.30;8.40;;;0.90;99.90;;;;;;4966125;28;20193;-61
2021/11/21 06:52:36;;;;;;;15.80;9.13;;;0.90;99.90;;;;;;4975767;28;20423;-59
2021/11/21 06:55:06;;;;;;;17.80;9.43;;;0.90;99.90;;;;;;4982540;28;20425;-60
2021/11/21 06:57:33;;;;;;;14.60;8.03;;;0.90;99.90;;;;;;4976295;28;20172;-60
2021/11/21 07:00:00;;;;;;;14.00;8.00;;;0.90;99.90;;;;;;4974121;28;20437;-58
2021/11/21 07:02:25;;;;;;;11.40;7.13;;;1.00;99.90;;;;;;4974510;28;20872;-60
2021/11/21 07:04:51;;;;;;;15.53;8.33;;;1.00;99.90;;;;;;4978378;28;20542;-59
2021/11/21 07:07:17;;;;;;;17.07;9.33;;;1.00;99.90;;;;;;4982631;28;20169;-61
2021/11/21 07:09:44;;;;;;;18.83;8.10;;;1.00;99.90;;;;;;4965894;28;20247;-60
2021/11/21 07:12:11;;;;;;;16.90;8.90;;;1.00;99.90;;;;;;4959157;28;20177;-56
2021/11/21 07:14:37;;;;;;;19.03;10.40;;;1.00;99.90;;;;;;4963218;28;20435;-62
2021/11/21 07:17:04;;;;;;;23.40;10.03;;;1.00;99.90;;;;;;4963796;28;20437;-60
2021/11/21 07:19:29;;;;;;;20.97;10.23;;;1.00;99.90;;;;;;4976486;28;20272;-60
2021/11/21 07:21:55;;;;;;;16.80;9.97;;;1.10;99.90;;;;;;4966989;28;20457;-61
2021/11/21 07:24:21;;;;;;;21.97;9.93;;;1.10;99.90;;;;;;4977442;28;20222;-61
2021/11/21 07:26:47;;;;;;;22.07;10.40;;;1.20;99.90;;;;;;4963220;28;20230;-60
2021/11/21 07:29:13;;;;;;;16.20;10.07;;;1.20;99.90;;;;;;4964631;28;20271;-60
2021/11/21 07:31:39;;;;;;;14.63;8.70;;;1.20;99.90;;;;;;4971404;28;20938;-59
2021/11/21 07:34:04;;;;;;;20.50;10.10;;;1.20;99.90;;;;;;4969908;28;20582;-59
2021/11/21 07:36:30;;;;;;;17.83;9.63;;;1.30;99.90;;;;;;4971906;28;20473;-59
2021/11/21 07:38:56;;;;;;;17.30;9.50;;;1.30;99.90;;;;;;4973300;28;20557;-60
2021/11/21 07:41:21;;;;;;;27.83;10.60;;;1.30;99.90;;;;;;4970202;28;20441;-59
2021/11/21 07:43:47;;;;;;;20.33;11.13;;;1.30;99.90;;;;;;4963013;28;20184;-58
2021/11/21 07:46:13;;;;;;;23.90;13.50;;;1.40;99.90;;;;;;4964558;28;20205;-59
2021/11/21 07:48:39;;;;;;;19.90;11.43;;;1.40;99.90;;;;;;4961899;28;20166;-60
2021/11/21 07:51:05;;;;;;;18.03;10.10;;;1.40;99.90;;;;;;4975285;28;20427;-59
2021/11/21 07:53:31;;;;;;;14.23;9.20;;;1.50;99.90;;;;;;4972531;28;20933;-59
2021/11/21 07:55:57;;;;;;;15.40;8.20;;;1.50;99.90;;;;;;4967042;28;20269;-59
2021/11/21 07:58:23;;;;;;;15.10;8.60;;;1.50;99.90;;;;;;4964450;28;20530;-60
2021/11/21 08:00:49;;;;;;;11.00;7.10;;;1.50;99.90;;;;;;4979542;28;20423;-59
2021/11/21 08:03:15;;;;;;;15.90;8.30;;;1.50;99.90;;;;;;4973837;28;20188;-58
2021/11/21 08:05:40;;;;;;;14.93;8.57;;;1.50;99.90;;;;;;4959424;28;20469;-58
2021/11/21 08:08:07;;;;;;;15.10;8.37;;;1.50;99.90;;;;;;4971010;28;20298;-59
2021/11/21 08:10:35;;;;;;;18.90;8.73;;;1.50;99.90;;;;;;4967976;28;20199;-59
2021/11/21 08:13:00;;;;;;;14.23;8.60;;;1.60;99.90;;;;;;4966514;28;20569;-59
2021/11/21 08:15:27;;;;;;;13.83;8.13;;;1.60;99.90;;;;;;4960315;28;21594;-58
2021/11/21 08:17:52;;;;;;;14.07;8.20;;;1.70;99.90;;;;;;4965463;28;20184;-58
2021/11/21 08:20:18;;;;;;;13.43;7.37;;;1.70;99.90;;;;;;4969089;28;20448;-58
2021/11/21 08:22:44;;;;;;;13.70;9.13;;;1.70;99.90;;;;;;4969488;28;20201;-58
2021/11/21 08:25:11;;;;;;;18.43;8.87;;;1.80;99.90;;;;;;4973745;28;20200;-58
2021/11/21 08:27:37;;;;;;;14.00;7.90;;;1.80;99.90;;;;;;4967777;28;20686;-59
2021/11/21 08:30:05;;;;;;;13.97;8.37;;;1.90;99.90;;;;;;4966839;28;20449;-60
2021/11/21 08:32:31;;;;;;;12.73;8.13;;;1.90;99.90;;;;;;4954491;28;20818;-58
2021/11/21 08:34:57;;;;;;;13.47;9.00;;;1.90;99.90;;;;;;4970471;28;21003;-60
2021/11/21 08:37:22;;;;;;;10.90;7.60;;;1.90;99.90;;;;;;4975487;28;20174;-59
2021/11/21 08:39:49;;;;;;;14.87;8.70;;;2.00;99.90;;;;;;4959227;28;20645;-60
2021/11/21 08:42:14;;;;;;;13.10;8.30;;;2.00;99.90;;;;;;4962906;28;20181;-58
2021/11/21 08:44:40;;;;;;;12.60;8.50;;;2.00;99.90;;;;;;4970274;28;21040;-60
2021/11/21 08:47:05;;;;;;;14.83;8.00;;;2.00;99.90;;;;;;4970267;28;20641;-59
2021/11/21 08:49:31;;;;;;;13.60;8.63;;;2.00;99.90;;;;;;4969864;28;20726;-59
2021/11/21 08:51:57;;;;;;;12.00;8.30;;;2.00;99.90;;;;;;4977830;28;20188;-59
2021/11/21 08:54:22;;;;;;;12.73;7.97;;;1.90;99.90;;;;;;4972891;28;20181;-59
2021/11/21 08:56:49;;;;;;;12.83;8.27;;;1.90;99.90;;;;;;4964862;28;20190;-61
2021/11/21 08:59:15;;;;;;;12.23;8.30;;;1.90;99.90;;;;;;4954996;28;20626;-60
2021/11/21 09:01:42;;;;;;;13.43;8.20;;;2.00;99.90;;;;;;4965618;28;20494;-60
2021/11/21 09:04:08;;;;;;;15.50;8.97;;;2.00;99.90;;;;;;4972612;28;20474;-59
2021/11/21 09:06:34;;;;;;;15.97;8.87;;;2.00;99.90;;;;;;4972284;28;20937;-60
2021/11/21 09:09:02;;;;;;;15.63;9.30;;;2.10;99.90;;;;;;4970185;28;20460;-61
2021/11/21 09:11:27;;;;;;;16.30;10.20;;;2.20;99.90;;;;;;4971150;28;20946;-60
2021/11/21 09:13:53;;;;;;;13.47;8.47;;;2.30;99.90;;;;;;4969763;28;20423;-59
2021/11/21 09:16:19;;;;;;;13.83;9.23;;;2.40;99.90;;;;;;4967123;28;20249;-60
2021/11/21 09:18:45;;;;;;;16.37;9.53;;;2.50;99.90;;;;;;4959966;28;20201;-60
2021/11/21 09:21:10;;;;;;;13.17;7.93;;;2.70;99.90;;;;;;4970425;28;20265;-59
2021/11/21 09:23:37;;;;;;;15.03;9.00;;;2.80;99.90;;;;;;4982356;28;20927;-60
2021/11/21 09:26:04;;;;;;;16.63;10.27;;;2.90;99.90;;;;;;4969505;28;20256;-60
2021/11/21 09:28:30;;;;;;;14.70;9.00;;;2.90;99.90;;;;;;4970922;28;20523;-59
2021/11/21 09:30:56;;;;;;;18.30;9.90;;;2.90;99.90;;;;;;4971110;28;20508;-60
2021/11/21 09:33:23;;;;;;;13.67;8.93;;;3.00;99.90;;;;;;4969105;28;20186;-58
2021/11/21 09:35:49;;;;;;;12.30;8.30;;;3.20;99.90;;;;;;4961469;28;20433;-60
2021/11/21 09:38:16;;;;;;;13.80;8.30;;;3.30;99.90;;;;;;4961758;28;20826;-60
2021/11/21 09:40:41;;;;;;;14.67;8.90;;;3.30;99.90;;;;;;4967748;28;20434;-59
2021/11/21 09:43:07;;;;;;;12.07;8.60;;;3.40;99.90;;;;;;4959603;28;20420;-60
2021/11/21 09:45:33;;;;;;;13.87;8.50;;;3.50;99.90;;;;;;4956758;28;20221;-60
2021/11/21 09:48:01;;;;;;;12.17;8.30;;;3.70;99.90;;;;;;4966932;28;20523;-60
2021/11/21 09:50:29;;;;;;;14.40;8.80;;;3.70;99.90;;;;;;4967164;28;20522;-59
2021/11/21 09:52:55;;;;;;;14.10;9.03;;;3.80;99.90;;;;;;4974789;28;20420;-60
2021/11/21 09:55:21;;;;;;;12.70;8.57;;;3.90;99.90;;;;;;4968571;28;20893;-60
2021/11/21 09:57:47;;;;;;;12.27;8.17;;;4.00;99.90;;;;;;4970393;28;20401;-60
2021/11/21 10:00:18;;;;;;;13.27;8.43;;;4.10;99.90;;;;;;4962774;28;20241;-57
2021/11/21 10:03:06;;;;;;;11.30;7.97;;;4.20;99.90;;;;;;4970362;28;20425;-60
2021/11/21 10:05:34;;;;;;;11.63;7.50;;;4.20;99.90;;;;;;4968201;28;20457;-61
2021/11/21 10:08:12;;;;;;;15.10;8.17;;;4.30;99.90;;;;;;4968316;28;20425;-60
2021/11/21 10:10:47;;;;;;;13.00;8.70;;;4.30;99.90;;;;;;4960762;28;20457;-59
2021/11/21 10:13:31;;;;;;;12.20;8.20;;;4.40;99.90;;;;;;4961159;28;20503;-60
2021/11/21 10:15:59;;;;;;;14.13;7.70;;;4.50;99.90;;;;;;4969577;28;20426;-59
2021/11/21 10:18:24;;;;;;;13.33;8.20;;;4.50;99.90;;;;;;4965114;28;20440;-59
2021/11/21 10:20:50;;;;;;;13.20;8.30;;;4.50;99.90;;;;;;4968630;28;20425;-59
2021/11/21 10:23:19;;;;;;;11.43;7.73;;;4.60;99.90;;;;;;4968194;28;20182;-60
2021/11/21 10:25:52;;;;;;;11.20;7.83;;;4.70;99.90;;;;;;4966005;28;20516;-61
2021/11/21 10:28:30;;;;;;;13.97;7.97;;;4.70;99.90;;;;;;4958456;28;20468;-60
2021/11/21 10:31:17;;;;;;;11.90;7.80;;;4.80;99.90;;;;;;4962435;28;20430;-58
2021/11/21 10:33:46;;;;;;;12.23;8.40;;;4.90;99.90;;;;;;4963458;28;20445;-59
2021/11/21 10:36:17;;;;;;;13.93;7.87;;;4.90;99.90;;;;;;4962079;28;20548;-59
2021/11/21 10:38:47;;;;;;;11.40;7.30;;;5.10;99.90;;;;;;4961661;28;20496;-58
2021/11/21 10:41:18;;;;;;;18.97;8.30;;;5.10;99.90;;;;;;4958532;28;20425;-59
2021/11/21 10:43:47;;;;;;;13.87;8.53;;;5.10;99.90;;;;;;4957208;28;20960;-59
2021/11/21 10:46:30;;;;;;;14.07;7.83;;;5.20;99.90;;;;;;4953028;28;20464;-60
2021/11/21 10:49:24;;;;;;;11.70;7.90;;;5.30;99.90;;;;;;4962419;28;20450;-58
2021/11/21 10:52:05;;;;;;;10.37;7.47;;;5.40;99.90;;;;;;4955073;28;20431;-59
2021/11/21 10:54:34;;;;;;;11.97;8.23;;;5.50;99.90;;;;;;4972120;28;20441;-61
2021/11/21 10:57:04;;;;;;;14.90;8.60;;;5.60;99.90;;;;;;4953746;28;21303;-60
2021/11/21 10:59:35;;;;;;;15.87;8.30;;;5.80;99.90;;;;;;4960150;28;20840;-60
2021/11/21 11:02:08;;;;;;;13.40;8.87;;;6.00;99.90;;;;;;4957342;28;20464;-61
2021/11/21 11:04:34;;;;;;;13.30;9.10;;;6.10;99.90;;;;;;4965928;28;21018;-59
2021/11/21 11:07:18;;;;;;;12.33;8.27;;;6.10;99.90;;;;;;4967831;28;20447;-60
2021/11/21 11:09:44;;;;;;;11.57;8.03;;;6.20;99.90;;;;;;4966578;28;20660;-59
2021/11/21 11:12:10;;;;;;;14.27;8.80;;;6.30;99.90;;;;;;4959381;28;20466;-59
2021/11/21 11:14:36;;;;;;;11.73;8.27;;;6.50;99.90;;;;;;4954423;28;20456;-59
2021/11/21 11:17:02;;;;;;;14.57;8.47;;;6.60;99.90;;;;;;4948605;28;20553;-59
2021/11/21 11:19:31;;;;;;;14.40;9.63;;;6.70;99.90;;;;;;4951521;28;20206;-59
2021/11/21 11:21:57;;;;;;;12.23;8.50;;;6.70;99.90;;;;;;4961353;28;20440;-59
2021/11/21 11:24:24;;;;;;;15.93;8.67;;;6.70;99.90;;;;;;4955550;28;20463;-60
2021/11/21 11:27:16;;;;;;;12.00;8.07;;;6.80;99.90;;;;;;4956847;28;20848;-60
2021/11/21 11:29:49;;;;;;;12.57;8.90;;;6.80;99.90;;;;;;4954375;28;20464;-60
2021/11/21 11:32:35;;;;;;;11.73;8.20;;;6.90;99.90;;;;;;4958855;28;20458;-60
2021/11/21 11:35:01;;;;;;;13.90;8.93;;;7.00;99.90;;;;;;4964885;28;20924;-60
2021/11/21 11:37:40;;;;;;;12.90;9.53;;;7.00;99.90;;;;;;4958399;28;20437;-61
2021/11/21 11:40:26;;;;;;;15.33;8.70;;;7.10;99.90;;;;;;4974745;28;20209;-60
2021/11/21 11:42:54;;;;;;;11.07;8.00;;;7.10;99.90;;;;;;4961637;28;20532;-60
2021/11/21 11:45:46;;;;;;;11.97;8.70;;;7.20;99.90;;;;;;4955812;28;20547;-59
2021/11/21 11:48:30;;;;;;;11.20;8.43;;;7.20;99.90;;;;;;4972715;28;20433;-59
2021/11/21 11:50:57;;;;;;;12.50;8.67;;;7.30;99.90;;;;;;4953425;28;20431;-60
2021/11/21 11:53:42;;;;;;;11.20;8.40;;;7.20;99.90;;;;;;4957866;28;20434;-60
2021/11/21 11:56:11;;;;;;;12.43;8.57;;;7.00;99.90;;;;;;4964434;28;20443;-60
2021/11/21 11:59:08;;;;;;;12.20;9.07;;;6.90;99.90;;;;;;4971982;28;20815;-58
2021/11/21 12:01:40;;;;;;;11.80;8.10;;;6.90;99.90;;;;;;4949494;28;20537;-61
2021/11/21 12:04:28;;;;;;;13.67;8.83;;;6.80;99.90;;;;;;4963404;28;20445;-60
2021/11/21 12:07:19;;;;;;;14.27;8.67;;;6.70;99.90;;;;;;4961266;28;20440;-61
2021/11/21 12:10:09;;;;;;;14.30;9.23;;;6.50;99.90;;;;;;4968664;28;20573;-60
2021/11/21 12:13:02;;;;;;;12.30;8.43;;;6.40;99.90;;;;;;4960877;28;21070;-61
2021/11/21 12:15:51;;;;;;;11.73;8.33;;;6.30;99.90;;;;;;4968587;28;20432;-60
2021/11/21 12:18:18;;;;;;;12.33;8.63;;;6.20;99.90;;;;;;4953978;28;20448;-61
2021/11/21 12:20:43;;;;;;;13.30;8.50;;;6.20;99.90;;;;;;4962009;28;20495;-61
2021/11/21 12:23:10;;;;;;;14.83;8.00;;;6.20;99.90;;;;;;4965924;28;20451;-60
2021/11/21 12:25:36;;;;;;;11.87;7.03;;;6.20;99.90;;;;;;4955907;28;20206;-61
2021/11/21 12:28:03;;;;;;;13.57;8.53;;;6.30;99.90;;;;;;4970594;28;20437;-60
2021/11/21 12:30:32;;;;;;;13.60;8.97;;;6.30;99.90;;;;;;4963867;28;20460;-62
2021/11/21 12:33:02;;;;;;;12.47;8.33;;;6.40;99.90;;;;;;4965277;28;20909;-61
2021/11/21 12:35:40;;;;;;;11.00;7.80;;;6.40;99.90;;;;;;4966438;28;20457;-61
2021/11/21 12:38:32;;;;;;;10.90;7.83;;;6.40;99.90;;;;;;4975434;28;20538;-61
2021/11/21 12:41:00;;;;;;;6.03;5.10;;;6.50;99.90;;;;;;4963927;28;20493;-61
2021/11/21 12:43:28;;;;;;;8.63;5.30;;;6.60;99.90;;;;;;4966498;28;20449;-61
2021/11/21 12:45:58;;;;;;;7.63;5.20;;;6.60;99.90;;;;;;4974974;28;20472;-61
2021/11/21 12:48:25;;;;;;;7.80;5.20;;;6.60;99.90;;;;;;4963959;28;21068;-59
2021/11/21 12:50:53;;;;;;;11.53;5.83;;;6.60;99.90;;;;;;4966436;28;20429;-59
2021/11/21 12:53:22;;;;;;;8.33;5.63;;;6.70;99.90;;;;;;4971934;28;20443;-61